Parksville, Canada
Current Conditions -  °F | °C
As of 9:00 PM on Saturday 22 Nov 2014 (Local Time) from CYCD Reporting Station
Light Fog Light Fog  
Wind Chill: 34°   Ceiling: Unl
Heat Index: 34°   Visibility: 20mi
Dew Point: 34°   Wind: 2mph
Humidity: 100%   Direction: NA
Pressure: 30.01"   Gusts: NA
Location:  49.32°N, 124.31°W
Report Text: CYCD 230500Z VRB02KT 20SM MIFG FEW090 SCT250 01/01 A3001 RMK AC1CI3 LAST OBS/NEXT 231400UTC SLP164
Loading
Personal Weather Stations






























Interactive Weather Map New forecast layout! Learn more

10-Day Weather Forecast

Advertisements
Track Severe Weather on mobile